アンカレッジ/テッド・スティーブンス の空港の天気 - METARとTAF

テッド・スティーブンス・アンカレッジ国際空港 ( PANC / ANC ) - アメリカ アラスカ州アンカレッジ
飛行場実況気象(Metar)
観測時間10/23 18:53 AKDT (10/24 02:53 UTC)
風向・風速南 2m/s
視程10km以上
天気現象
全天の4割程度の雲 雲底高度 2590m
全天の8割程度の雲 雲底高度 6100m
気温5℃
湿度70%
気圧986.1hPa
METARPANC 240253Z 17003KT 10SM SCT085 BKN200 05/00 A2912 RMK AO2 SLP861 T00500000 53020
過去の天気等 Google飛行場航空写真 Wunderground天気予報

過去48時間のMETAR

飛行場予報(TAF)
発表時間: 10/23 15:25 AKDT (10/23 23:25 UTC)
予報対象時間: 23日16時 AKDT ~ 24日22時 AKDT
風向・風速北 3m/s
視程10km以上
天気現象周辺でしゅう雨
少しの雲 雲底高度 1520m
全天の8割程度の雲 雲底高度 2130m
全天を覆う雲 雲底高度 3660m
PANC 232325Z 2400/2506 01006KT P6SM VCSH FEW050 BKN070 OVC120